Time;durP1;ratioP1;P1;durP2;ratioP2;P2;SDS_P1;SDS_P2;PMS_P1;PMS_P2;Temp;Humidity;BMP_temperature;BMP_pressure;BME280_temperature;BME280_humidity;BME280_pressure;Samples;Min_cycle;Max_cycle;Signal;HPM_P1;HPM_P2
2022/12/17 13:08:22;;;;;;;98.10;30.60;;;;;;;-4.16;93.13;101220.25;103137;1304;22477;-62
2022/12/17 13:10:55;;;;;;;97.00;29.40;;;;;;;-4.17;93.29;101229.80;103063;1305;22712;-61
2022/12/17 13:13:36;;;;;;;110.60;35.70;;;;;;;-4.18;93.24;101232.66;103373;1275;22559;-60
2022/12/17 13:16:28;;;;;;;124.40;41.30;;;;;;;-4.18;93.34;101232.27;103156;1290;24477;-61
2022/12/17 13:19:18;;;;;;;107.50;37.80;;;;;;;-4.19;93.35;101231.79;103221;1274;25430;-62
2022/12/17 13:21:50;;;;;;;95.30;34.30;;;;;;;-4.20;93.31;101235.81;103093;1282;22473;-60
2022/12/17 13:24:28;;;;;;;102.80;34.30;;;;;;;-4.21;93.31;101237.59;103103;1282;25035;-60
2022/12/17 13:26:59;;;;;;;102.20;33.60;;;;;;;-4.22;93.26;101240.83;103140;1305;22770;-60
2022/12/17 13:29:34;;;;;;;92.30;30.50;;;;;;;-4.24;93.29;101240.70;103281;1275;22505;-61
2022/12/17 13:32:29;;;;;;;110.60;33.00;;;;;;;-4.25;93.45;101243.00;103109;1306;22498;-60
2022/12/17 13:35:18;;;;;;;98.10;30.10;;;;;;;-4.26;93.48;101249.07;104185;1279;25525;-58
2022/12/17 13:37:59;;;;;;;98.40;29.60;;;;;;;-4.28;93.56;101251.89;103048;1282;24285;-61
2022/12/17 13:40:42;;;;;;;112.80;35.50;;;;;;;-4.30;93.62;101256.69;103171;1275;25383;-60
2022/12/17 13:43:22;;;;;;;108.40;33.10;;;;;;;-4.32;93.51;101262.24;103181;1282;22527;-59
2022/12/17 13:46:12;;;;;;;105.10;37.60;;;;;;;-4.33;93.54;101265.80;103308;1282;25301;-59
2022/12/17 13:48:43;;;;;;;106.50;36.80;;;;;;;-4.34;93.64;101269.21;103106;1282;22940;-59
2022/12/17 13:51:23;;;;;;;98.20;33.10;;;;;;;-4.34;93.69;101273.02;104145;1288;24341;-60
2022/12/17 13:53:58;;;;;;;107.00;35.20;;;;;;;-4.33;93.73;101277.25;103216;1305;22471;-59
2022/12/17 13:56:31;;;;;;;99.00;30.50;;;;;;;-4.34;93.66;101282.60;103154;1278;24438;-59
2022/12/17 13:59:05;;;;;;;114.20;38.10;;;;;;;-4.34;93.59;101286.58;103002;1274;22553;-60
2022/12/17 14:01:46;;;;;;;95.80;31.20;;;;;;;-4.35;93.51;101289.69;102946;1282;24564;-58
2022/12/17 14:04:26;;;;;;;96.60;33.70;;;;;;;-4.37;93.45;101286.59;102939;1282;22939;-60
2022/12/17 14:07:01;;;;;;;112.50;37.20;;;;;;;-4.38;93.34;101293.97;103094;1306;22510;-59
2022/12/17 14:09:38;;;;;;;99.70;33.60;;;;;;;-4.40;93.48;101295.09;103010;1282;23135;-59
2022/12/17 14:12:24;;;;;;;96.60;29.90;;;;;;;-4.41;93.44;101301.36;103079;1284;22530;-59
2022/12/17 14:14:57;;;;;;;97.20;30.40;;;;;;;-4.42;93.31;101310.20;103035;1306;22613;-59
2022/12/17 14:17:35;;;;;;;87.70;28.50;;;;;;;-4.44;93.22;101308.35;103396;1275;24960;-60
2022/12/17 14:20:11;;;;;;;98.20;32.30;;;;;;;-4.47;93.21;101311.59;103070;1282;22491;-60
2022/12/17 14:22:46;;;;;;;99.80;33.80;;;;;;;-4.48;93.22;101313.11;103130;1274;24433;-59
2022/12/17 14:25:20;;;;;;;100.90;32.00;;;;;;;-4.49;93.22;101318.21;103147;1282;25527;-59
2022/12/17 14:27:57;;;;;;;102.20;29.00;;;;;;;-4.51;93.18;101320.42;103148;1282;24463;-60
2022/12/17 14:30:38;;;;;;;105.10;30.70;;;;;;;-4.52;93.24;101332.48;103044;1306;22529;-60
2022/12/17 14:33:29;;;;;;;102.70;33.60;;;;;;;-4.55;93.36;101330.77;103040;1274;22606;-60
2022/12/17 14:36:04;;;;;;;94.50;32.40;;;;;;;-4.55;93.49;101336.58;102958;1298;24341;-60
2022/12/17 14:38:36;;;;;;;114.00;37.90;;;;;;;-4.57;93.51;101339.96;103160;1282;22754;-60
2022/12/17 14:44:02;;;;;;;97.70;30.20;;;;;;;-4.59;93.72;101350.67;103048;1282;22504;-61
2022/12/17 14:46:35;;;;;;;99.70;32.10;;;;;;;-4.61;93.82;101360.43;103013;1274;23078;-59
2022/12/17 14:49:16;;;;;;;94.80;31.70;;;;;;;-4.62;93.81;101368.24;103011;1306;24115;-60
2022/12/17 14:51:51;;;;;;;95.10;32.20;;;;;;;-4.63;93.66;101367.21;103153;1306;22630;-60
2022/12/17 14:54:30;;;;;;;122.50;40.50;;;;;;;-4.64;93.48;101371.56;103236;1288;26906;-60
2022/12/17 14:57:05;;;;;;;88.90;28.70;;;;;;;-4.64;93.18;101374.64;103078;1306;22589;-60
2022/12/17 14:59:38;;;;;;;92.30;32.60;;;;;;;-4.65;93.10;101380.16;103038;1288;25493;-60
2022/12/17 15:02:19;;;;;;;95.10;33.70;;;;;;;-4.65;93.16;101384.15;103080;1275;22584;-60
2022/12/17 15:04:52;;;;;;;94.10;31.20;;;;;;;-4.67;92.98;101388.98;103198;1275;22513;-60
2022/12/17 15:07:27;;;;;;;84.30;28.80;;;;;;;-4.68;92.95;101389.48;103072;1274;22527;-59
2022/12/17 15:10:11;;;;;;;108.10;34.10;;;;;;;-4.70;93.02;101385.73;103161;1282;24334;-57
2022/12/17 15:12:47;;;;;;;97.00;34.10;;;;;;;-4.70;92.96;101388.90;102975;1282;24313;-59
2022/12/17 15:15:20;;;;;;;81.60;28.70;;;;;;;-4.71;93.05;101392.84;103102;1275;22628;-59
2022/12/17 15:17:52;;;;;;;84.10;27.50;;;;;;;-4.71;93.01;101396.19;103089;1307;24375;-59
2022/12/17 15:20:23;;;;;;;82.10;26.10;;;;;;;-4.72;92.94;101395.55;103062;1282;24300;-59
2022/12/17 15:22:55;;;;;;;86.00;27.40;;;;;;;-4.72;93.00;101396.46;102962;1274;25545;-59
2022/12/17 15:25:28;;;;;;;77.70;27.80;;;;;;;-4.73;92.97;101402.83;103427;1275;24016;-59
2022/12/17 15:27:59;;;;;;;84.60;28.30;;;;;;;-4.75;92.94;101407.45;102989;1282;23102;-59
2022/12/17 15:30:31;;;;;;;88.90;27.60;;;;;;;-4.76;92.97;101408.13;105457;1278;22633;-59
2022/12/17 15:33:03;;;;;;;82.20;26.00;;;;;;;-4.77;93.00;101419.30;103112;1284;23112;-59
2022/12/17 15:35:36;;;;;;;79.80;28.10;;;;;;;-4.76;93.16;101419.94;102953;1282;24277;-59
2022/12/17 15:38:08;;;;;;;87.90;26.40;;;;;;;-4.77;93.10;101425.52;102993;1282;22787;-58
2022/12/17 15:40:40;;;;;;;82.60;28.40;;;;;;;-4.77;93.19;101427.38;102994;1278;22532;-59
2022/12/17 15:43:13;;;;;;;89.40;29.20;;;;;;;-4.77;93.28;101427.16;103065;1281;23206;-59
2022/12/17 15:45:46;;;;;;;83.70;26.30;;;;;;;-4.76;93.24;101428.58;103345;1306;22592;-59
2022/12/17 15:48:20;;;;;;;86.60;28.80;;;;;;;-4.76;93.29;101429.21;103434;1274;22576;-58
2022/12/17 15:50:51;;;;;;;87.20;26.40;;;;;;;-4.73;93.30;101434.11;103412;1280;22552;-59
2022/12/17 15:53:23;;;;;;;85.40;27.20;;;;;;;-4.72;93.30;101432.29;103028;1282;22574;-56
2022/12/17 15:56:01;;;;;;;95.50;30.20;;;;;;;-4.70;93.22;101429.08;103508;1282;22573;-58
2022/12/17 15:58:32;;;;;;;84.20;25.80;;;;;;;-4.68;93.26;101429.73;103154;1282;22577;-59
2022/12/17 16:01:07;;;;;;;68.50;23.70;;;;;;;-4.68;93.24;101430.14;102946;1282;22590;-58
2022/12/17 16:03:40;;;;;;;83.80;25.50;;;;;;;-4.68;93.25;101432.56;102870;1274;22540;-60
2022/12/17 16:06:11;;;;;;;92.10;28.00;;;;;;;-4.68;93.19;101433.41;103143;1281;22490;-60
2022/12/17 16:08:43;;;;;;;84.90;25.90;;;;;;;-4.67;93.35;101435.14;103059;1306;25624;-60
2022/12/17 16:11:15;;;;;;;80.20;25.20;;;;;;;-4.65;93.33;101438.94;103188;1282;26859;-59
2022/12/17 16:13:53;;;;;;;90.60;28.90;;;;;;;-4.64;93.36;101451.04;102945;1275;25640;-60
2022/12/17 16:16:25;;;;;;;91.60;27.40;;;;;;;-4.65;93.34;101454.38;103071;1277;24443;-60
2022/12/17 16:18:57;;;;;;;68.10;21.70;;;;;;;-4.64;93.40;101457.48;103145;1274;25637;-59
2022/12/17 16:21:28;;;;;;;79.60;24.30;;;;;;;-4.66;93.35;101460.86;103128;1282;26891;-59
2022/12/17 16:24:00;;;;;;;81.90;28.00;;;;;;;-4.67;93.43;101462.33;103204;1306;22592;-59
2022/12/17 16:26:32;;;;;;;89.00;27.50;;;;;;;-4.66;93.54;101474.88;103233;1289;22603;-58
2022/12/17 16:29:03;;;;;;;71.90;24.10;;;;;;;-4.66;93.59;101468.97;103039;1274;24410;-58
2022/12/17 16:31:36;;;;;;;99.40;28.10;;;;;;;-4.64;93.62;101470.26;102985;1282;22495;-58
2022/12/17 16:34:12;;;;;;;82.70;24.90;;;;;;;-4.61;93.62;101474.21;102913;1283;22588;-58
2022/12/17 16:36:45;;;;;;;87.20;24.90;;;;;;;-4.60;93.67;101480.02;103192;1282;22525;-59
2022/12/17 16:39:20;;;;;;;80.30;25.90;;;;;;;-4.58;93.69;101482.95;103133;1282;24368;-59
2022/12/17 16:41:52;;;;;;;82.60;27.20;;;;;;;-4.56;93.82;101484.10;103140;1306;22684;-58
2022/12/17 16:44:23;;;;;;;75.40;24.30;;;;;;;-4.55;93.82;101489.30;103162;1288;22556;-59
2022/12/17 16:46:55;;;;;;;76.40;22.30;;;;;;;-4.55;93.85;101498.09;103200;1299;24013;-60
2022/12/17 16:49:28;;;;;;;81.20;24.90;;;;;;;-4.53;93.84;101505.13;103139;1282;24256;-61
2022/12/17 16:52:01;;;;;;;72.40;21.00;;;;;;;-4.51;93.86;101502.63;103061;1306;22490;-57
2022/12/17 16:54:33;;;;;;;85.10;23.70;;;;;;;-4.50;93.83;101505.14;102930;1306;24489;-59
2022/12/17 16:57:05;;;;;;;86.20;26.00;;;;;;;-4.50;93.89;101505.92;103053;1284;24509;-59
2022/12/17 16:59:36;;;;;;;80.10;23.80;;;;;;;-4.49;93.82;101510.46;103004;1300;22616;-59
2022/12/17 17:02:14;;;;;;;80.40;25.70;;;;;;;-4.50;93.75;101510.05;103082;1304;25482;-59
2022/12/17 17:04:45;;;;;;;70.80;23.00;;;;;;;-4.49;93.84;101509.53;103104;1283;26742;-58
2022/12/17 17:07:17;;;;;;;76.00;25.10;;;;;;;-4.48;93.79;101508.94;102918;1275;22542;-58
2022/12/17 17:09:49;;;;;;;77.80;25.20;;;;;;;-4.48;93.75;101510.57;103110;1276;24350;-57
2022/12/17 17:12:20;;;;;;;86.90;26.70;;;;;;;-4.47;93.80;101511.38;103098;1306;23146;-59
2022/12/17 17:14:54;;;;;;;79.10;25.80;;;;;;;-4.45;93.78;101514.07;103038;1304;24362;-58
2022/12/17 17:17:26;;;;;;;80.30;23.90;;;;;;;-4.45;93.81;101522.27;102908;1306;24646;-59
2022/12/17 17:19:57;;;;;;;75.80;24.80;;;;;;;-4.44;93.71;101523.84;103409;1281;22564;-58
2022/12/17 17:22:28;;;;;;;77.00;25.00;;;;;;;-4.44;93.71;101528.36;103062;1282;22626;-56
2022/12/17 17:24:59;;;;;;;87.20;27.50;;;;;;;-4.44;93.71;101526.49;103048;1306;22490;-56
2022/12/17 17:27:31;;;;;;;81.00;24.50;;;;;;;-4.44;93.70;101532.71;102966;1306;22512;-55
2022/12/17 17:30:02;;;;;;;66.30;19.30;;;;;;;-4.46;93.69;101531.98;103093;1306;25661;-59
2022/12/17 17:32:34;;;;;;;79.70;24.50;;;;;;;-4.47;93.74;101534.98;103134;1284;22735;-58
2022/12/17 17:35:06;;;;;;;72.60;23.20;;;;;;;-4.47;93.78;101536.92;103117;1282;25837;-57
2022/12/17 17:37:38;;;;;;;77.70;25.30;;;;;;;-4.46;93.81;101540.60;103018;1282;24440;-63
2022/12/17 17:40:13;;;;;;;75.90;23.20;;;;;;;-4.46;93.77;101542.17;104736;1289;22610;-58
2022/12/17 17:42:44;;;;;;;73.80;22.70;;;;;;;-4.44;93.81;101548.14;103206;1275;22706;-57
2022/12/17 17:45:15;;;;;;;70.20;21.10;;;;;;;-4.45;93.79;101553.02;103182;1275;22712;-59
2022/12/17 17:47:47;;;;;;;70.90;23.90;;;;;;;-4.45;93.70;101554.81;103156;1306;23013;-59
2022/12/17 17:50:19;;;;;;;74.90;25.20;;;;;;;-4.44;93.54;101552.44;103223;1275;25740;-64
2022/12/17 17:52:51;;;;;;;79.70;23.70;;;;;;;-4.43;93.63;101551.75;103155;1306;25522;-58
2022/12/17 17:55:23;;;;;;;81.40;24.50;;;;;;;-4.43;93.69;101551.05;103161;1274;22498;-59
2022/12/17 17:57:54;;;;;;;79.20;25.90;;;;;;;-4.43;93.68;101559.70;103075;1282;23536;-59
2022/12/17 18:00:26;;;;;;;75.60;25.00;;;;;;;-4.43;93.62;101561.17;103161;1305;24344;-58
2022/12/17 18:02:57;;;;;;;76.00;25.30;;;;;;;-4.43;93.61;101564.06;103220;1306;24649;-59
2022/12/17 18:05:29;;;;;;;71.80;22.30;;;;;;;-4.43;93.69;101566.92;103212;1281;22700;-59
2022/12/17 18:08:00;;;;;;;82.50;23.00;;;;;;;-4.45;93.49;101565.08;103443;1282;22659;-59
2022/12/17 18:10:32;;;;;;;71.90;22.40;;;;;;;-4.45;93.61;101567.73;103659;1274;23331;-60
2022/12/17 18:15:53;;;;;;;71.60;22.60;;;;;;;-4.46;93.54;101574.18;103395;1305;22541;-59
2022/12/17 18:18:24;;;;;;;71.10;19.90;;;;;;;-4.47;93.59;101573.05;103406;1282;22499;-58
2022/12/17 18:21:06;;;;;;;84.10;25.80;;;;;;;-4.46;93.53;101580.10;103478;1305;23017;-58
2022/12/17 18:23:39;;;;;;;72.80;21.90;;;;;;;-4.45;93.59;101581.36;103351;1298;24842;-58
2022/12/17 18:26:12;;;;;;;69.50;22.30;;;;;;;-4.45;93.50;101581.91;103390;1298;22521;-61
2022/12/17 18:28:44;;;;;;;71.30;22.20;;;;;;;-4.46;93.47;101586.47;103394;1306;23227;-60
2022/12/17 18:31:18;;;;;;;73.50;23.00;;;;;;;-4.47;93.52;101592.91;103407;1305;23169;-59
2022/12/17 18:33:52;;;;;;;66.70;19.90;;;;;;;-4.47;93.52;101596.17;103361;1304;24264;-58
2022/12/17 18:36:25;;;;;;;79.80;23.30;;;;;;;-4.48;93.43;101606.59;103417;1298;22502;-58
2022/12/17 18:39:00;;;;;;;66.60;20.70;;;;;;;-4.48;93.42;101611.43;103647;1306;22529;-58
2022/12/17 18:44:22;;;;;;;73.80;22.30;;;;;;;-4.47;93.43;101615.88;103270;1298;22473;-58
2022/12/17 18:46:54;;;;;;;72.40;23.20;;;;;;;-4.47;93.45;101620.11;103484;1291;25635;-58
2022/12/17 18:49:26;;;;;;;90.10;30.60;;;;;;;-4.46;93.40;101621.89;103448;1281;24300;-58
2022/12/17 18:51:58;;;;;;;71.70;24.10;;;;;;;-4.46;93.43;101621.38;103720;1281;22714;-59
2022/12/17 18:54:32;;;;;;;69.00;21.70;;;;;;;-4.46;93.37;101629.55;103374;1275;22635;-59
2022/12/17 18:57:04;;;;;;;75.50;25.10;;;;;;;-4.47;93.33;101631.00;103381;1304;24248;-64
2022/12/17 18:59:36;;;;;;;76.80;25.30;;;;;;;-4.47;93.35;101635.27;103503;1288;26086;-60
2022/12/17 19:02:11;;;;;;;75.50;22.70;;;;;;;-4.47;93.18;101640.48;103978;1275;22628;-60
2022/12/17 19:04:43;;;;;;;68.90;21.30;;;;;;;-4.49;93.31;101640.81;103576;1276;24317;-58
2022/12/17 19:07:14;;;;;;;81.40;25.40;;;;;;;-4.50;93.30;101647.89;103547;1306;22620;-60
2022/12/17 19:09:46;;;;;;;90.00;28.50;;;;;;;-4.49;93.31;101646.41;104592;1281;22471;-60
2022/12/17 19:12:17;;;;;;;69.30;22.00;;;;;;;-4.50;93.30;101649.82;103600;1291;26042;-58
2022/12/17 19:14:52;;;;;;;62.00;19.60;;;;;;;-4.50;93.32;101660.73;103342;1288;22641;-59
2022/12/17 19:17:26;;;;;;;68.10;22.40;;;;;;;-4.51;93.29;101663.74;103223;1282;25574;-60
2022/12/17 19:19:59;;;;;;;78.70;25.30;;;;;;;-4.50;93.31;101662.96;103177;1282;22500;-58
2022/12/17 19:22:31;;;;;;;65.80;21.60;;;;;;;-4.50;93.30;101665.78;103014;1278;25597;-59
2022/12/17 19:25:03;;;;;;;71.40;20.70;;;;;;;-4.49;93.27;101670.94;103321;1275;22741;-59
2022/12/17 19:27:36;;;;;;;63.90;18.10;;;;;;;-4.50;93.29;101671.84;102990;1292;22510;-59
2022/12/17 19:30:10;;;;;;;65.90;20.60;;;;;;;-4.49;93.25;101676.63;103041;1284;22673;-59
2022/12/17 19:32:42;;;;;;;57.40;16.50;;;;;;;-4.49;93.21;101688.38;103076;1300;22603;-59
2022/12/17 19:35:15;;;;;;;54.10;17.90;;;;;;;-4.50;93.19;101690.31;102958;1282;24439;-58
2022/12/17 19:37:48;;;;;;;66.00;19.00;;;;;;;-4.50;93.09;101693.66;103595;1282;25600;-59
2022/12/17 19:40:20;;;;;;;55.40;19.60;;;;;;;-4.51;93.10;101692.23;103137;1288;22665;-59
2022/12/17 19:42:54;;;;;;;67.40;20.00;;;;;;;-4.52;92.94;101696.08;103138;1304;22542;-61
2022/12/17 19:45:26;;;;;;;70.30;20.30;;;;;;;-4.53;92.93;101700.02;103109;1296;22572;-60
2022/12/17 19:48:00;;;;;;;65.00;19.20;;;;;;;-4.54;92.96;101698.58;103739;1298;22845;-59
2022/12/17 19:50:38;;;;;;;55.30;18.10;;;;;;;-4.55;92.97;101699.27;103464;1306;22572;-60
2022/12/17 19:53:10;;;;;;;57.00;16.60;;;;;;;-4.56;92.94;101697.85;103168;1303;22628;-59
2022/12/17 19:55:45;;;;;;;68.20;19.40;;;;;;;-4.56;92.96;101702.74;103268;1281;22769;-62
2022/12/17 19:58:19;;;;;;;54.40;15.20;;;;;;;-4.56;92.86;101707.72;103736;1281;25480;-60
2022/12/17 20:00:59;;;;;;;65.30;22.00;;;;;;;-4.57;92.96;101712.83;103928;1281;22931;-60
2022/12/17 20:03:31;;;;;;;62.50;20.10;;;;;;;-4.56;92.87;101715.89;103074;1281;22485;-58
2022/12/17 20:06:03;;;;;;;52.80;17.40;;;;;;;-4.57;92.83;101721.25;103201;1306;24238;-60
2022/12/17 20:08:36;;;;;;;68.90;21.70;;;;;;;-4.58;92.67;101730.64;103020;1298;25473;-59
2022/12/17 20:14:02;;;;;;;59.40;19.80;;;;;;;-4.60;92.60;101736.72;102968;1281;24318;-59
2022/12/17 20:16:36;;;;;;;52.40;17.10;;;;;;;-4.63;92.52;101737.70;103019;1298;22525;-58
2022/12/17 20:19:10;;;;;;;64.50;19.30;;;;;;;-4.66;92.64;101740.33;103070;1283;22487;-59
2022/12/17 20:21:44;;;;;;;52.00;16.40;;;;;;;-4.66;92.85;101740.65;103110;1287;25552;-60
2022/12/17 20:24:17;;;;;;;57.00;17.20;;;;;;;-4.67;92.65;101747.77;102980;1284;22518;-60
2022/12/17 20:26:52;;;;;;;67.40;22.70;;;;;;;-4.68;92.72;101752.41;103084;1303;24302;-60
2022/12/17 20:29:25;;;;;;;55.80;17.40;;;;;;;-4.67;92.79;101750.41;103414;1281;22520;-60
2022/12/17 20:32:04;;;;;;;50.10;15.90;;;;;;;-4.67;92.81;101749.63;103169;1283;22959;-59
2022/12/17 20:34:38;;;;;;;63.90;19.20;;;;;;;-4.68;92.76;101754.20;103101;1306;22534;-60
2022/12/17 20:37:10;;;;;;;61.60;19.60;;;;;;;-4.68;92.80;101758.95;102986;1274;24759;-61
2022/12/17 20:39:41;;;;;;;59.30;18.70;;;;;;;-4.67;92.78;101762.16;103057;1282;24417;-58
2022/12/17 20:42:14;;;;;;;63.70;21.40;;;;;;;-4.66;92.73;101763.60;103114;1284;25684;-60
2022/12/17 20:44:45;;;;;;;61.80;19.30;;;;;;;-4.66;92.78;101761.65;103004;1306;22653;-59
2022/12/17 20:47:18;;;;;;;62.10;17.60;;;;;;;-4.67;92.67;101768.39;103011;1275;22604;-60
2022/12/17 20:49:49;;;;;;;58.10;18.70;;;;;;;-4.69;92.56;101779.08;103033;1282;25544;-60
2022/12/17 20:52:21;;;;;;;54.70;15.30;;;;;;;-4.69;92.57;101785.77;102928;1282;23042;-59
2022/12/17 20:54:53;;;;;;;51.80;15.00;;;;;;;-4.75;92.35;101786.92;102971;1298;26791;-57
2022/12/17 20:57:24;;;;;;;51.10;16.70;;;;;;;-4.81;92.20;101785.54;103092;1282;22935;-60
2022/12/17 20:59:56;;;;;;;60.60;17.80;;;;;;;-4.85;92.40;101785.02;102994;1305;25520;-60
2022/12/17 21:02:28;;;;;;;54.10;17.30;;;;;;;-4.88;92.44;101796.74;103066;1306;24237;-63
2022/12/17 21:05:00;;;;;;;77.00;26.30;;;;;;;-4.90;92.55;101797.91;104363;1281;24323;-60
2022/12/17 21:07:32;;;;;;;59.30;21.40;;;;;;;-4.91;92.75;101803.64;103551;1282;22521;-60
2022/12/17 21:10:04;;;;;;;60.80;20.00;;;;;;;-4.91;92.73;101802.92;103554;1281;23049;-58
2022/12/17 21:15:21;;;;;;;69.90;21.00;;;;;;;-4.89;92.75;101805.64;103386;1282;22526;-60
2022/12/17 21:17:53;;;;;;;68.20;21.50;;;;;;;-4.88;92.73;101808.54;103303;1275;22517;-60
2022/12/17 21:20:25;;;;;;;67.10;21.70;;;;;;;-4.87;92.64;101809.13;103733;1281;22690;-59
2022/12/17 21:22:57;;;;;;;67.00;21.40;;;;;;;-4.88;92.49;101815.02;103501;1274;25440;-58
2022/12/17 21:25:30;;;;;;;77.40;21.80;;;;;;;-4.88;92.53;101819.44;103522;1283;24021;-60
2022/12/17 21:28:02;;;;;;;70.20;21.70;;;;;;;-4.88;92.47;101829.09;103601;1306;22487;-62
2022/12/17 21:30:38;;;;;;;55.10;17.50;;;;;;;-4.91;92.34;101829.15;103549;1288;22961;-59
2022/12/17 21:33:10;;;;;;;53.80;16.30;;;;;;;-4.98;92.20;101834.30;103558;1282;26910;-59
2022/12/17 21:35:41;;;;;;;65.50;20.60;;;;;;;-5.03;92.22;101835.25;103648;1278;26022;-60
2022/12/17 21:38:14;;;;;;;68.20;21.80;;;;;;;-5.07;92.32;101832.32;103524;1281;24625;-60
2022/12/17 21:40:45;;;;;;;59.80;19.10;;;;;;;-5.11;92.43;101834.75;103483;1289;24292;-58
2022/12/17 21:43:17;;;;;;;80.50;24.80;;;;;;;-5.12;92.63;101834.63;103473;1282;24033;-59
2022/12/17 21:45:49;;;;;;;84.80;28.60;;;;;;;-5.11;92.60;101843.15;103508;1306;22770;-60
2022/12/17 21:48:20;;;;;;;82.40;28.60;;;;;;;-5.10;92.72;101844.36;103029;1303;23977;-59
2022/12/17 21:50:52;;;;;;;66.30;21.60;;;;;;;-5.10;92.59;101846.39;103125;1304;24374;-59
2022/12/17 21:53:24;;;;;;;78.30;23.80;;;;;;;-5.10;92.49;101848.16;103076;1282;22542;-59
2022/12/17 21:56:07;;;;;;;76.10;24.60;;;;;;;-5.11;92.50;101849.30;103151;1281;25595;-59
2022/12/17 21:58:39;;;;;;;63.10;22.70;;;;;;;-5.11;92.57;101853.05;103124;1291;22584;-58
2022/12/17 22:01:16;;;;;;;72.20;25.00;;;;;;;-5.11;92.54;101850.25;103189;1289;22784;-61
2022/12/17 22:03:52;;;;;;;78.80;23.90;;;;;;;-5.12;92.51;101847.80;103046;1274;24051;-58
2022/12/17 22:06:26;;;;;;;61.50;20.60;;;;;;;-5.12;92.50;101849.80;103030;1281;22715;-59
2022/12/17 22:08:59;;;;;;;68.80;20.80;;;;;;;-5.15;92.41;101849.71;102951;1287;22514;-59
2022/12/17 22:11:34;;;;;;;78.50;23.50;;;;;;;-5.16;92.40;101850.43;103184;1279;22571;-59
2022/12/17 22:14:10;;;;;;;75.30;24.30;;;;;;;-5.18;92.43;101854.34;103100;1282;22634;-57
2022/12/17 22:16:45;;;;;;;86.10;31.60;;;;;;;-5.20;92.44;101863.75;103138;1279;22684;-58
2022/12/17 22:19:19;;;;;;;82.80;31.60;;;;;;;-5.22;92.45;101862.53;103085;1281;22484;-61
2022/12/17 22:21:51;;;;;;;86.00;28.20;;;;;;;-5.21;92.53;101865.72;103050;1280;24638;-59
2022/12/17 22:24:24;;;;;;;94.40;30.00;;;;;;;-5.22;92.45;101863.69;103093;1282;22571;-58
2022/12/17 22:26:59;;;;;;;88.70;30.90;;;;;;;-5.22;92.54;101866.09;103044;1282;22824;-59
2022/12/17 22:35:10;;;;;;;83.30;25.50;;;;;;;-5.24;92.34;101869.50;102926;1281;25586;-59
2022/12/17 22:37:42;;;;;;;86.40;27.80;;;;;;;-5.28;92.44;101871.92;103097;1283;22712;-59
2022/12/17 22:40:14;;;;;;;90.90;29.90;;;;;;;-5.30;92.52;101878.39;103012;1281;22638;-58
2022/12/17 22:45:42;;;;;;;77.30;25.80;;;;;;;-5.33;92.62;101879.30;102773;1286;22592;-60
2022/12/17 22:48:13;;;;;;;94.60;34.00;;;;;;;-5.33;92.63;101881.64;102914;1287;25545;-59
2022/12/17 22:50:46;;;;;;;99.30;32.40;;;;;;;-5.31;92.76;101882.71;102905;1288;24045;-58
2022/12/17 22:53:18;;;;;;;100.40;33.70;;;;;;;-5.28;92.80;101886.35;102899;1277;25072;-59
2022/12/17 22:55:49;;;;;;;91.50;30.50;;;;;;;-5.24;92.91;101887.17;102904;1292;25589;-60
2022/12/17 22:58:21;;;;;;;94.60;34.50;;;;;;;-5.22;92.81;101890.30;102910;1284;22566;-60
2022/12/17 23:00:53;;;;;;;94.10;29.60;;;;;;;-5.20;92.89;101896.42;102710;1290;23204;-60
2022/12/17 23:03:25;;;;;;;86.10;25.50;;;;;;;-5.17;92.80;101896.60;102715;1281;22637;-59
2022/12/17 23:06:07;;;;;;;98.60;30.60;;;;;;;-5.15;92.76;101898.41;102803;1291;22699;-59
2022/12/17 23:08:39;;;;;;;88.50;29.00;;;;;;;-5.14;92.64;101901.88;102845;1284;23348;-59
2022/12/17 23:11:13;;;;;;;79.80;27.00;;;;;;;-5.12;92.58;101901.95;102619;1285;22748;-59
2022/12/17 23:13:45;;;;;;;91.10;30.20;;;;;;;-5.10;92.63;101898.43;102695;1285;24466;-58
2022/12/17 23:16:17;;;;;;;66.00;20.60;;;;;;;-5.07;92.61;101894.41;102736;1288;22741;-60
2022/12/17 23:18:50;;;;;;;79.30;24.30;;;;;;;-5.07;92.38;101897.92;102824;1299;24859;-59
2022/12/17 23:21:24;;;;;;;63.70;24.10;;;;;;;-5.07;92.44;101894.66;102755;1289;22530;-60
2022/12/17 23:23:57;;;;;;;76.10;23.10;;;;;;;-5.07;92.43;101893.33;104104;1300;22813;-60
2022/12/17 23:26:31;;;;;;;67.20;22.40;;;;;;;-5.08;92.35;101892.29;103034;1288;24323;-59
2022/12/17 23:29:06;;;;;;;68.80;19.70;;;;;;;-5.06;92.36;101897.85;103218;1282;22677;-59
2022/12/17 23:31:40;;;;;;;67.20;23.40;;;;;;;-5.06;92.44;101906.20;102984;1291;22531;-58
2022/12/17 23:34:11;;;;;;;75.70;28.00;;;;;;;-5.05;92.43;101908.19;103134;1281;22592;-60
2022/12/17 23:36:42;;;;;;;65.70;22.60;;;;;;;-5.03;92.51;101907.70;103296;1289;22536;-59
2022/12/17 23:39:15;;;;;;;76.70;25.50;;;;;;;-5.03;92.49;101912.60;103338;1281;22522;-59
2022/12/17 23:41:46;;;;;;;65.60;21.00;;;;;;;-5.02;92.45;101919.25;103242;1288;22614;-58
2022/12/17 23:44:17;;;;;;;60.00;21.20;;;;;;;-5.01;92.46;101919.05;103149;1281;22638;-58
2022/12/17 23:46:49;;;;;;;68.90;23.10;;;;;;;-4.99;92.53;101918.52;103262;1285;22657;-59
2022/12/17 23:49:20;;;;;;;61.00;19.20;;;;;;;-5.00;92.36;101912.41;103092;1283;23114;-59
2022/12/17 23:51:52;;;;;;;53.40;19.60;;;;;;;-5.01;92.31;101917.67;103162;1274;24390;-59
2022/12/17 23:54:24;;;;;;;62.00;22.50;;;;;;;-5.01;92.45;101921.73;103232;1279;23953;-59
2022/12/17 23:56:58;;;;;;;63.30;19.60;;;;;;;-5.02;92.34;101927.21;103224;1303;22635;-59
2022/12/17 23:59:29;;;;;;;62.90;21.80;;;;;;;-5.05;92.31;101925.01;103288;1281;22766;-61
